Aéroport de Guadeloupe - Pôle Caraïbes, Guadeloupe

03:03 AST le 06 février 2016 (GMT -0400)
Le Raizet | | Change Station
CLOSE
Current Station
Aéroport
Location: Le Raizet Airport,
Altitude: 26 ft
Stations météo à proximité

Alt. 26 ft 16.27 °N, 61.53 °W | Updated 3 minutes ago

Clear
Ciel dégagé
75 ° F
Paraît 75 ° F
N
6
Vent Variable Vent de SE

Aujourd'hui
Haut(e) -- | Bas -- ° F
--% Risque de précip.
Hier
Haut(e) -- | Bas -- ° F
Precip. -- pouce
Pression 30.01 pouce
Visibilité 6.2 Miles terrestres
Nuages
Point de rosée 70 ° F
Humidité 83%
Précipitations 0.00 pouce
Profondeur de la couche neigeuse Non disponible.
6:35 AM 6:05 PM
Lune descendante, 7% visible
METAR TFFR 060700Z AUTO 14005KT 110V180 9999 NSC 24/21 Q1016
Pression 30.01 pouce
Visibilité 6.2 Miles terrestres
Nuages
Point de rosée 70 ° F
Humidité 83%
Précipitations 0.00 pouce
Profondeur de la couche neigeuse Non disponible.
6:35 AM 6:05 PM
Lune descendante, 7% visible
METAR TFFR 060700Z AUTO 14005KT 110V180 9999 NSC 24/21 Q1016

10-Day Weather Forecast

No radar image for this location.
×

Almanac

Astronomie

Feb. 06, 2016 Lever Coucher
Temps réel
Crépuscule civil
Crépuscule nautique
Crépuscule astronomique
Lune
Durée de lumière visible
Longueur du jour
Tomorrow will be .
, % of the Moon is Illuminated

Extrêmes aujourd'hui

Country Highs Country Lows

Community

WunderPhotos

Upload Photos

1,890,932 Photos téléchargées !

WunderBlog® & News

Nearby

Qualité de l'air

  Qualité de l'air Indice de la qualité de l'air Polluant
Not available.

Épaisseur de neige

Station Depth Altitude

Activité sismique

Ville Distance Mag. Time & Date
Minimum magnitude displayed is 2.5.

Températures des eaux côtières

Lieu Température

Stations

Stations météo à proximité

Emplacement de la station Température Refroidissement éolien Point de rosée Humidité Vent Precip. Alt. Mise à jour Type